sensor_id;sensor_type;location;lat;lon;timestamp;temperature;humidity
70074;DHT22;57445;51.058;3.698;2022-09-23T00:02:10;15.30;82.40
70074;DHT22;57445;51.058;3.698;2022-09-23T00:04:38;15.30;81.80
70074;DHT22;57445;51.058;3.698;2022-09-23T00:07:08;15.30;81.70
70074;DHT22;57445;51.058;3.698;2022-09-23T00:09:35;15.10;82.30
70074;DHT22;57445;51.058;3.698;2022-09-23T00:12:03;15.10;82.20
70074;DHT22;57445;51.058;3.698;2022-09-23T00:14:37;14.90;82.60
70074;DHT22;57445;51.058;3.698;2022-09-23T00:17:09;14.70;83.40
70074;DHT22;57445;51.058;3.698;2022-09-23T00:19:42;14.90;83.10
70074;DHT22;57445;51.058;3.698;2022-09-23T00:22:11;14.80;82.20
70074;DHT22;57445;51.058;3.698;2022-09-23T00:24:43;14.70;82.40
70074;DHT22;57445;51.058;3.698;2022-09-23T00:27:11;14.80;81.90
70074;DHT22;57445;51.058;3.698;2022-09-23T00:29:43;14.70;81.90
70074;DHT22;57445;51.058;3.698;2022-09-23T00:32:11;14.90;81.50
70074;DHT22;57445;51.058;3.698;2022-09-23T00:34:39;15.00;80.90
70074;DHT22;57445;51.058;3.698;2022-09-23T00:37:13;14.90;81.20
70074;DHT22;57445;51.058;3.698;2022-09-23T00:39:42;14.90;80.90
70074;DHT22;57445;51.058;3.698;2022-09-23T00:42:19;14.90;80.90
70074;DHT22;57445;51.058;3.698;2022-09-23T00:44:49;15.00;81.00
70074;DHT22;57445;51.058;3.698;2022-09-23T00:47:20;14.90;80.70
70074;DHT22;57445;51.058;3.698;2022-09-23T00:49:53;14.80;81.20
70074;DHT22;57445;51.058;3.698;2022-09-23T00:52:24;14.90;80.80
70074;DHT22;57445;51.058;3.698;2022-09-23T00:54:53;14.90;80.40
70074;DHT22;57445;51.058;3.698;2022-09-23T00:57:27;14.90;80.20
70074;DHT22;57445;51.058;3.698;2022-09-23T00:59:56;14.70;81.20
70074;DHT22;57445;51.058;3.698;2022-09-23T01:02:25;14.60;81.30
70074;DHT22;57445;51.058;3.698;2022-09-23T01:04:55;14.60;81.30
70074;DHT22;57445;51.058;3.698;2022-09-23T01:07:24;14.60;81.40
70074;DHT22;57445;51.058;3.698;2022-09-23T01:09:52;14.50;81.60
70074;DHT22;57445;51.058;3.698;2022-09-23T01:12:38;14.40;82.10
70074;DHT22;57445;51.058;3.698;2022-09-23T01:15:18;14.30;82.60
70074;DHT22;57445;51.058;3.698;2022-09-23T01:17:52;14.20;82.90
70074;DHT22;57445;51.058;3.698;2022-09-23T01:24:12;14.40;81.20
70074;DHT22;57445;51.058;3.698;2022-09-23T01:27:01;14.40;82.10
70074;DHT22;57445;51.058;3.698;2022-09-23T01:29:52;14.50;81.80
70074;DHT22;57445;51.058;3.698;2022-09-23T01:32:42;14.40;81.70
70074;DHT22;57445;51.058;3.698;2022-09-23T01:35:22;14.50;81.80
70074;DHT22;57445;51.058;3.698;2022-09-23T01:38:04;14.50;81.40
70074;DHT22;57445;51.058;3.698;2022-09-23T01:40:45;14.60;80.40
70074;DHT22;57445;51.058;3.698;2022-09-23T01:43:20;14.70;79.70
70074;DHT22;57445;51.058;3.698;2022-09-23T01:45:53;14.70;79.60
70074;DHT22;57445;51.058;3.698;2022-09-23T01:48:35;14.80;79.20
70074;DHT22;57445;51.058;3.698;2022-09-23T01:51:13;14.80;78.90
70074;DHT22;57445;51.058;3.698;2022-09-23T01:53:45;14.70;79.40
70074;DHT22;57445;51.058;3.698;2022-09-23T01:56:26;14.60;79.70
70074;DHT22;57445;51.058;3.698;2022-09-23T01:59:00;14.60;80.30
70074;DHT22;57445;51.058;3.698;2022-09-23T02:01:35;14.60;79.60
70074;DHT22;57445;51.058;3.698;2022-09-23T02:04:09;14.50;80.20
70074;DHT22;57445;51.058;3.698;2022-09-23T02:06:47;14.30;81.10
70074;DHT22;57445;51.058;3.698;2022-09-23T02:09:20;14.20;81.80
70074;DHT22;57445;51.058;3.698;2022-09-23T02:11:56;14.30;82.10
70074;DHT22;57445;51.058;3.698;2022-09-23T02:14:30;14.30;81.80
70074;DHT22;57445;51.058;3.698;2022-09-23T02:17:08;14.50;81.50
70074;DHT22;57445;51.058;3.698;2022-09-23T02:19:46;14.40;81.50
70074;DHT22;57445;51.058;3.698;2022-09-23T02:22:21;14.30;82.20
70074;DHT22;57445;51.058;3.698;2022-09-23T02:24:50;14.30;82.30
70074;DHT22;57445;51.058;3.698;2022-09-23T02:27:29;14.40;82.30
70074;DHT22;57445;51.058;3.698;2022-09-23T02:30:03;14.30;82.30
70074;DHT22;57445;51.058;3.698;2022-09-23T02:32:38;14.30;82.50
70074;DHT22;57445;51.058;3.698;2022-09-23T02:35:19;14.40;82.40
70074;DHT22;57445;51.058;3.698;2022-09-23T02:38:01;14.50;81.70
70074;DHT22;57445;51.058;3.698;2022-09-23T02:40:35;14.60;81.80
70074;DHT22;57445;51.058;3.698;2022-09-23T02:43:13;14.50;81.80
70074;DHT22;57445;51.058;3.698;2022-09-23T02:45:49;14.30;82.30
70074;DHT22;57445;51.058;3.698;2022-09-23T02:48:20;14.20;82.80
70074;DHT22;57445;51.058;3.698;2022-09-23T02:50:50;14.30;82.50
70074;DHT22;57445;51.058;3.698;2022-09-23T02:53:18;14.40;82.30
70074;DHT22;57445;51.058;3.698;2022-09-23T02:55:46;14.40;82.20
70074;DHT22;57445;51.058;3.698;2022-09-23T02:58:14;14.50;82.10
70074;DHT22;57445;51.058;3.698;2022-09-23T03:00:54;14.40;82.20
70074;DHT22;57445;51.058;3.698;2022-09-23T03:03:28;14.20;82.60
70074;DHT22;57445;51.058;3.698;2022-09-23T03:06:03;14.10;83.10
70074;DHT22;57445;51.058;3.698;2022-09-23T03:08:41;14.00;83.50
70074;DHT22;57445;51.058;3.698;2022-09-23T03:11:16;14.00;83.80
70074;DHT22;57445;51.058;3.698;2022-09-23T03:14:02;14.10;83.70
70074;DHT22;57445;51.058;3.698;2022-09-23T03:16:41;14.30;82.60
70074;DHT22;57445;51.058;3.698;2022-09-23T03:19:22;14.40;82.40
70074;DHT22;57445;51.058;3.698;2022-09-23T03:22:00;14.30;83.10
70074;DHT22;57445;51.058;3.698;2022-09-23T03:24:35;14.20;82.90
70074;DHT22;57445;51.058;3.698;2022-09-23T03:27:06;14.30;83.20
70074;DHT22;57445;51.058;3.698;2022-09-23T03:29:37;14.30;82.90
70074;DHT22;57445;51.058;3.698;2022-09-23T03:32:05;14.40;82.80
70074;DHT22;57445;51.058;3.698;2022-09-23T03:34:39;14.40;82.50
70074;DHT22;57445;51.058;3.698;2022-09-23T03:37:14;14.50;82.50
70074;DHT22;57445;51.058;3.698;2022-09-23T03:39:48;14.60;81.40
70074;DHT22;57445;51.058;3.698;2022-09-23T03:42:20;14.60;81.10
70074;DHT22;57445;51.058;3.698;2022-09-23T03:44:53;14.70;80.90
70074;DHT22;57445;51.058;3.698;2022-09-23T03:47:23;14.80;80.60
70074;DHT22;57445;51.058;3.698;2022-09-23T03:49:52;14.90;80.30
70074;DHT22;57445;51.058;3.698;2022-09-23T03:52:23;14.80;80.30
70074;DHT22;57445;51.058;3.698;2022-09-23T03:54:56;14.80;80.70
70074;DHT22;57445;51.058;3.698;2022-09-23T03:57:24;14.70;80.30
70074;DHT22;57445;51.058;3.698;2022-09-23T03:59:52;14.90;79.70
70074;DHT22;57445;51.058;3.698;2022-09-23T04:02:20;15.00;78.70
70074;DHT22;57445;51.058;3.698;2022-09-23T04:04:47;14.90;78.90
70074;DHT22;57445;51.058;3.698;2022-09-23T04:07:21;14.90;79.00
70074;DHT22;57445;51.058;3.698;2022-09-23T04:09:49;14.90;78.20
70074;DHT22;57445;51.058;3.698;2022-09-23T04:12:16;14.80;78.80
70074;DHT22;57445;51.058;3.698;2022-09-23T04:14:48;14.50;80.00
70074;DHT22;57445;51.058;3.698;2022-09-23T04:17:21;14.50;80.60
70074;DHT22;57445;51.058;3.698;2022-09-23T04:19:48;14.50;81.20
70074;DHT22;57445;51.058;3.698;2022-09-23T04:22:22;14.70;81.40
70074;DHT22;57445;51.058;3.698;2022-09-23T04:24:50;14.40;81.60
70074;DHT22;57445;51.058;3.698;2022-09-23T04:27:17;14.60;81.20
70074;DHT22;57445;51.058;3.698;2022-09-23T04:29:45;14.80;80.00
70074;DHT22;57445;51.058;3.698;2022-09-23T04:32:17;14.80;79.90
70074;DHT22;57445;51.058;3.698;2022-09-23T04:34:45;14.60;80.90
70074;DHT22;57445;51.058;3.698;2022-09-23T04:37:17;14.60;80.90
70074;DHT22;57445;51.058;3.698;2022-09-23T04:39:50;14.70;80.50
70074;DHT22;57445;51.058;3.698;2022-09-23T04:42:22;14.80;79.60
70074;DHT22;57445;51.058;3.698;2022-09-23T04:44:50;14.80;79.40
70074;DHT22;57445;51.058;3.698;2022-09-23T04:47:22;14.80;80.00
70074;DHT22;57445;51.058;3.698;2022-09-23T04:49:50;14.80;79.30
70074;DHT22;57445;51.058;3.698;2022-09-23T04:52:18;14.90;78.90
70074;DHT22;57445;51.058;3.698;2022-09-23T04:54:45;15.00;78.60
70074;DHT22;57445;51.058;3.698;2022-09-23T04:57:14;14.80;79.10
70074;DHT22;57445;51.058;3.698;2022-09-23T04:59:42;14.80;79.30
70074;DHT22;57445;51.058;3.698;2022-09-23T05:02:10;15.00;78.90
70074;DHT22;57445;51.058;3.698;2022-09-23T05:04:42;14.80;79.20
70074;DHT22;57445;51.058;3.698;2022-09-23T05:07:10;14.90;79.30
70074;DHT22;57445;51.058;3.698;2022-09-23T05:09:43;14.80;79.20
70074;DHT22;57445;51.058;3.698;2022-09-23T05:12:11;14.90;78.60
70074;DHT22;57445;51.058;3.698;2022-09-23T05:14:40;14.70;79.20
70074;DHT22;57445;51.058;3.698;2022-09-23T05:17:07;14.80;79.70
70074;DHT22;57445;51.058;3.698;2022-09-23T05:19:35;14.80;78.80
70074;DHT22;57445;51.058;3.698;2022-09-23T05:22:02;14.90;79.20
70074;DHT22;57445;51.058;3.698;2022-09-23T05:24:31;14.60;79.70
70074;DHT22;57445;51.058;3.698;2022-09-23T05:26:59;14.50;80.20
70074;DHT22;57445;51.058;3.698;2022-09-23T05:29:31;14.30;80.90
70074;DHT22;57445;51.058;3.698;2022-09-23T05:32:00;14.40;81.20
70074;DHT22;57445;51.058;3.698;2022-09-23T05:34:32;14.40;80.80
70074;DHT22;57445;51.058;3.698;2022-09-23T05:37:00;14.60;80.10
70074;DHT22;57445;51.058;3.698;2022-09-23T05:39:28;14.60;81.00
70074;DHT22;57445;51.058;3.698;2022-09-23T05:41:55;14.60;80.10
70074;DHT22;57445;51.058;3.698;2022-09-23T05:44:25;14.70;80.00
70074;DHT22;57445;51.058;3.698;2022-09-23T05:46:53;14.60;80.10
70074;DHT22;57445;51.058;3.698;2022-09-23T05:49:22;14.70;80.10
70074;DHT22;57445;51.058;3.698;2022-09-23T05:51:49;14.80;80.50
70074;DHT22;57445;51.058;3.698;2022-09-23T05:54:17;14.40;81.30
70074;DHT22;57445;51.058;3.698;2022-09-23T05:56:45;14.50;80.70
70074;DHT22;57445;51.058;3.698;2022-09-23T05:59:12;14.80;80.70
70074;DHT22;57445;51.058;3.698;2022-09-23T06:01:40;14.80;80.30
70074;DHT22;57445;51.058;3.698;2022-09-23T06:04:11;14.90;79.30
70074;DHT22;57445;51.058;3.698;2022-09-23T06:06:42;14.80;79.40
70074;DHT22;57445;51.058;3.698;2022-09-23T06:09:12;14.80;79.80
70074;DHT22;57445;51.058;3.698;2022-09-23T06:11:41;14.70;80.00
70074;DHT22;57445;51.058;3.698;2022-09-23T06:14:13;15.00;79.40
70074;DHT22;57445;51.058;3.698;2022-09-23T06:16:42;15.20;78.50
70074;DHT22;57445;51.058;3.698;2022-09-23T06:19:11;15.10;78.90
70074;DHT22;57445;51.058;3.698;2022-09-23T06:21:40;15.00;79.50
70074;DHT22;57445;51.058;3.698;2022-09-23T06:24:08;14.90;79.50
70074;DHT22;57445;51.058;3.698;2022-09-23T06:26:36;15.10;78.80
70074;DHT22;57445;51.058;3.698;2022-09-23T06:29:10;15.40;77.80
70074;DHT22;57445;51.058;3.698;2022-09-23T06:31:38;15.40;77.90
70074;DHT22;57445;51.058;3.698;2022-09-23T06:34:12;15.60;77.40
70074;DHT22;57445;51.058;3.698;2022-09-23T06:36:42;15.50;77.70
70074;DHT22;57445;51.058;3.698;2022-09-23T06:39:09;15.60;77.20
70074;DHT22;57445;51.058;3.698;2022-09-23T06:41:37;15.60;78.00
70074;DHT22;57445;51.058;3.698;2022-09-23T06:44:10;15.30;78.30
70074;DHT22;57445;51.058;3.698;2022-09-23T06:46:42;14.80;80.00
70074;DHT22;57445;51.058;3.698;2022-09-23T06:49:10;14.70;80.50
70074;DHT22;57445;51.058;3.698;2022-09-23T06:51:44;14.70;80.70
70074;DHT22;57445;51.058;3.698;2022-09-23T06:54:11;15.00;80.70
70074;DHT22;57445;51.058;3.698;2022-09-23T06:56:39;15.30;79.50
70074;DHT22;57445;51.058;3.698;2022-09-23T06:59:13;15.40;78.80
70074;DHT22;57445;51.058;3.698;2022-09-23T07:01:46;15.50;78.30
70074;DHT22;57445;51.058;3.698;2022-09-23T07:04:17;15.70;77.70
70074;DHT22;57445;51.058;3.698;2022-09-23T07:06:46;15.80;77.70
70074;DHT22;57445;51.058;3.698;2022-09-23T07:09:14;15.60;77.30
70074;DHT22;57445;51.058;3.698;2022-09-23T07:11:41;15.30;79.00
70074;DHT22;57445;51.058;3.698;2022-09-23T07:14:09;16.00;78.10
70074;DHT22;57445;51.058;3.698;2022-09-23T07:16:37;15.70;78.10
70074;DHT22;57445;51.058;3.698;2022-09-23T07:19:09;15.90;77.40
70074;DHT22;57445;51.058;3.698;2022-09-23T07:21:37;16.30;76.40
70074;DHT22;57445;51.058;3.698;2022-09-23T07:24:07;16.30;76.30
70074;DHT22;57445;51.058;3.698;2022-09-23T07:26:35;16.70;75.40
70074;DHT22;57445;51.058;3.698;2022-09-23T07:29:03;16.60;75.40
70074;DHT22;57445;51.058;3.698;2022-09-23T07:31:31;16.70;74.90
70074;DHT22;57445;51.058;3.698;2022-09-23T07:34:00;16.50;75.30
70074;DHT22;57445;51.058;3.698;2022-09-23T07:36:28;16.70;75.60
70074;DHT22;57445;51.058;3.698;2022-09-23T07:38:58;17.00;75.10
70074;DHT22;57445;51.058;3.698;2022-09-23T07:41:34;16.90;74.60
70074;DHT22;57445;51.058;3.698;2022-09-23T07:44:08;16.80;75.10
70074;DHT22;57445;51.058;3.698;2022-09-23T07:46:37;17.20;74.20
70074;DHT22;57445;51.058;3.698;2022-09-23T07:49:05;17.50;73.20
70074;DHT22;57445;51.058;3.698;2022-09-23T07:51:39;17.40;72.90
70074;DHT22;57445;51.058;3.698;2022-09-23T07:54:10;17.60;72.80
70074;DHT22;57445;51.058;3.698;2022-09-23T07:56:44;17.70;72.80
70074;DHT22;57445;51.058;3.698;2022-09-23T07:59:15;17.40;73.60
70074;DHT22;57445;51.058;3.698;2022-09-23T08:01:49;17.40;73.70
70074;DHT22;57445;51.058;3.698;2022-09-23T08:04:24;17.20;74.40
70074;DHT22;57445;51.058;3.698;2022-09-23T08:06:55;17.20;75.00
70074;DHT22;57445;51.058;3.698;2022-09-23T08:09:25;17.60;74.20
70074;DHT22;57445;51.058;3.698;2022-09-23T08:11:55;17.90;73.00
70074;DHT22;57445;51.058;3.698;2022-09-23T08:14:23;18.30;72.10
70074;DHT22;57445;51.058;3.698;2022-09-23T08:16:55;18.50;71.10
70074;DHT22;57445;51.058;3.698;2022-09-23T08:19:23;18.70;71.20
70074;DHT22;57445;51.058;3.698;2022-09-23T08:21:50;18.40;71.10
70074;DHT22;57445;51.058;3.698;2022-09-23T08:24:25;18.20;71.80
70074;DHT22;57445;51.058;3.698;2022-09-23T08:26:59;18.10;72.50
70074;DHT22;57445;51.058;3.698;2022-09-23T08:29:31;18.30;72.00
70074;DHT22;57445;51.058;3.698;2022-09-23T08:32:03;18.60;71.30
70074;DHT22;57445;51.058;3.698;2022-09-23T08:34:31;18.80;70.90
70074;DHT22;57445;51.058;3.698;2022-09-23T08:37:00;18.90;70.40
70074;DHT22;57445;51.058;3.698;2022-09-23T08:39:33;19.00;70.60
70074;DHT22;57445;51.058;3.698;2022-09-23T08:42:13;19.20;69.70
70074;DHT22;57445;51.058;3.698;2022-09-23T08:44:50;19.30;69.60
70074;DHT22;57445;51.058;3.698;2022-09-23T08:47:23;19.20;70.10
70074;DHT22;57445;51.058;3.698;2022-09-23T08:50:02;19.00;71.20
70074;DHT22;57445;51.058;3.698;2022-09-23T08:52:43;19.20;71.00
70074;DHT22;57445;51.058;3.698;2022-09-23T08:55:13;19.10;71.20
70074;DHT22;57445;51.058;3.698;2022-09-23T08:57:52;19.20;71.10
70074;DHT22;57445;51.058;3.698;2022-09-23T09:00:35;19.50;70.40
70074;DHT22;57445;51.058;3.698;2022-09-23T09:03:18;19.70;70.00
70074;DHT22;57445;51.058;3.698;2022-09-23T09:05:48;20.20;68.60
70074;DHT22;57445;51.058;3.698;2022-09-23T09:08:23;20.00;68.80
70074;DHT22;57445;51.058;3.698;2022-09-23T09:10:53;20.40;69.00
70074;DHT22;57445;51.058;3.698;2022-09-23T09:13:29;20.20;68.60
70074;DHT22;57445;51.058;3.698;2022-09-23T09:16:09;19.70;69.50
70074;DHT22;57445;51.058;3.698;2022-09-23T09:18:51;19.80;69.70
70074;DHT22;57445;51.058;3.698;2022-09-23T09:21:23;20.20;68.30
70074;DHT22;57445;51.058;3.698;2022-09-23T09:23:54;20.40;68.50
70074;DHT22;57445;51.058;3.698;2022-09-23T09:26:28;20.60;67.50
70074;DHT22;57445;51.058;3.698;2022-09-23T09:29:03;20.50;67.60
70074;DHT22;57445;51.058;3.698;2022-09-23T09:31:36;20.50;68.70
70074;DHT22;57445;51.058;3.698;2022-09-23T09:34:09;20.60;68.40
70074;DHT22;57445;51.058;3.698;2022-09-23T09:36:45;20.50;68.50
70074;DHT22;57445;51.058;3.698;2022-09-23T09:39:16;20.60;68.40
70074;DHT22;57445;51.058;3.698;2022-09-23T09:41:47;21.00;67.60
70074;DHT22;57445;51.058;3.698;2022-09-23T09:44:21;21.20;67.00
70074;DHT22;57445;51.058;3.698;2022-09-23T09:46:58;21.20;67.40
70074;DHT22;57445;51.058;3.698;2022-09-23T09:49:33;21.10;67.30
70074;DHT22;57445;51.058;3.698;2022-09-23T09:52:19;20.80;68.00
70074;DHT22;57445;51.058;3.698;2022-09-23T09:54:49;20.80;67.80
70074;DHT22;57445;51.058;3.698;2022-09-23T09:57:31;21.00;67.50
70074;DHT22;57445;51.058;3.698;2022-09-23T10:00:18;21.30;66.30
70074;DHT22;57445;51.058;3.698;2022-09-23T10:02:51;21.40;66.80
70074;DHT22;57445;51.058;3.698;2022-09-23T10:05:26;21.30;67.60
70074;DHT22;57445;51.058;3.698;2022-09-23T10:07:54;21.60;66.30
70074;DHT22;57445;51.058;3.698;2022-09-23T10:10:24;20.90;67.50
70074;DHT22;57445;51.058;3.698;2022-09-23T10:12:55;20.20;70.00
70074;DHT22;57445;51.058;3.698;2022-09-23T10:15:31;19.80;71.20
70074;DHT22;57445;51.058;3.698;2022-09-23T10:18:17;19.60;72.10
70074;DHT22;57445;51.058;3.698;2022-09-23T10:20:47;19.90;72.40
70074;DHT22;57445;51.058;3.698;2022-09-23T10:23:18;20.50;70.10
70074;DHT22;57445;51.058;3.698;2022-09-23T10:25:55;21.30;67.80
70074;DHT22;57445;51.058;3.698;2022-09-23T10:28:35;22.00;66.10
70074;DHT22;57445;51.058;3.698;2022-09-23T10:31:08;22.20;65.90
70074;DHT22;57445;51.058;3.698;2022-09-23T10:33:46;21.80;66.50
70074;DHT22;57445;51.058;3.698;2022-09-23T10:36:15;21.90;66.30
70074;DHT22;57445;51.058;3.698;2022-09-23T10:38:43;21.80;66.50
70074;DHT22;57445;51.058;3.698;2022-09-23T10:41:25;21.40;68.50
70074;DHT22;57445;51.058;3.698;2022-09-23T10:44:24;21.70;66.90
70074;DHT22;57445;51.058;3.698;2022-09-23T10:47:25;22.40;65.50
70074;DHT22;57445;51.058;3.698;2022-09-23T10:50:05;22.10;66.30
70074;DHT22;57445;51.058;3.698;2022-09-23T10:52:51;21.90;67.50
70074;DHT22;57445;51.058;3.698;2022-09-23T10:55:36;21.60;68.10
70074;DHT22;57445;51.058;3.698;2022-09-23T10:58:24;22.20;67.50
70074;DHT22;57445;51.058;3.698;2022-09-23T11:01:04;22.60;66.20
70074;DHT22;57445;51.058;3.698;2022-09-23T11:04:08;21.90;67.10
70074;DHT22;57445;51.058;3.698;2022-09-23T11:06:49;22.10;67.40
70074;DHT22;57445;51.058;3.698;2022-09-23T11:09:28;22.80;66.20
70074;DHT22;57445;51.058;3.698;2022-09-23T11:12:11;23.10;65.60
70074;DHT22;57445;51.058;3.698;2022-09-23T11:14:54;23.40;65.10
70074;DHT22;57445;51.058;3.698;2022-09-23T11:17:42;22.90;65.00
70074;DHT22;57445;51.058;3.698;2022-09-23T11:20:29;22.80;65.30
70074;DHT22;57445;51.058;3.698;2022-09-23T11:23:16;22.80;65.90
70074;DHT22;57445;51.058;3.698;2022-09-23T11:25:52;23.40;64.20
70074;DHT22;57445;51.058;3.698;2022-09-23T11:28:50;23.50;64.10
70074;DHT22;57445;51.058;3.698;2022-09-23T11:31:31;23.20;64.50
70074;DHT22;57445;51.058;3.698;2022-09-23T11:34:21;23.40;64.70
70074;DHT22;57445;51.058;3.698;2022-09-23T11:36:58;24.10;63.10
70074;DHT22;57445;51.058;3.698;2022-09-23T11:39:30;24.40;62.50
70074;DHT22;57445;51.058;3.698;2022-09-23T11:42:00;24.40;62.90
70074;DHT22;57445;51.058;3.698;2022-09-23T11:44:32;24.50;62.10
70074;DHT22;57445;51.058;3.698;2022-09-23T11:47:05;24.90;62.00
70074;DHT22;57445;51.058;3.698;2022-09-23T11:49:37;24.20;63.20
70074;DHT22;57445;51.058;3.698;2022-09-23T11:52:10;23.70;63.80
70074;DHT22;57445;51.058;3.698;2022-09-23T11:54:52;23.40;64.50
70074;DHT22;57445;51.058;3.698;2022-09-23T11:57:26;22.70;66.70
70074;DHT22;57445;51.058;3.698;2022-09-23T11:59:59;22.90;66.90
70074;DHT22;57445;51.058;3.698;2022-09-23T12:02:37;23.20;66.60
70074;DHT22;57445;51.058;3.698;2022-09-23T12:05:16;23.70;65.50
70074;DHT22;57445;51.058;3.698;2022-09-23T12:07:51;23.90;65.10
70074;DHT22;57445;51.058;3.698;2022-09-23T12:10:34;23.90;64.40
70074;DHT22;57445;51.058;3.698;2022-09-23T12:13:12;23.00;66.60
70074;DHT22;57445;51.058;3.698;2022-09-23T12:16:01;22.70;68.10
70074;DHT22;57445;51.058;3.698;2022-09-23T12:18:40;22.70;68.70
70074;DHT22;57445;51.058;3.698;2022-09-23T12:21:48;22.70;69.10
70074;DHT22;57445;51.058;3.698;2022-09-23T12:24:39;22.90;67.70
70074;DHT22;57445;51.058;3.698;2022-09-23T12:27:21;22.70;68.60
70074;DHT22;57445;51.058;3.698;2022-09-23T12:29:54;23.00;68.70
70074;DHT22;57445;51.058;3.698;2022-09-23T12:32:23;22.80;68.90
70074;DHT22;57445;51.058;3.698;2022-09-23T12:34:52;22.90;68.90
70074;DHT22;57445;51.058;3.698;2022-09-23T12:37:27;23.30;68.20
70074;DHT22;57445;51.058;3.698;2022-09-23T12:40:06;23.60;66.90
70074;DHT22;57445;51.058;3.698;2022-09-23T12:42:40;23.90;66.60
70074;DHT22;57445;51.058;3.698;2022-09-23T12:45:33;24.10;65.90
70074;DHT22;57445;51.058;3.698;2022-09-23T12:48:26;24.10;65.60
70074;DHT22;57445;51.058;3.698;2022-09-23T12:51:15;23.80;66.80
70074;DHT22;57445;51.058;3.698;2022-09-23T12:53:54;23.00;68.10
70074;DHT22;57445;51.058;3.698;2022-09-23T12:57:01;22.90;69.10
70074;DHT22;57445;51.058;3.698;2022-09-23T12:59:32;23.00;68.70
70074;DHT22;57445;51.058;3.698;2022-09-23T13:02:32;22.80;69.20
70074;DHT22;57445;51.058;3.698;2022-09-23T13:05:18;22.70;70.10
70074;DHT22;57445;51.058;3.698;2022-09-23T13:08:07;22.80;69.70
70074;DHT22;57445;51.058;3.698;2022-09-23T13:10:41;22.70;69.80
70074;DHT22;57445;51.058;3.698;2022-09-23T13:13:18;22.70;70.10
70074;DHT22;57445;51.058;3.698;2022-09-23T13:15:47;22.20;70.90
70074;DHT22;57445;51.058;3.698;2022-09-23T13:21:59;22.70;70.40
70074;DHT22;57445;51.058;3.698;2022-09-23T13:24:37;22.50;70.30
70074;DHT22;57445;51.058;3.698;2022-09-23T13:27:14;22.80;70.10
70074;DHT22;57445;51.058;3.698;2022-09-23T13:29:49;23.10;68.70
70074;DHT22;57445;51.058;3.698;2022-09-23T13:32:27;22.90;69.30
70074;DHT22;57445;51.058;3.698;2022-09-23T13:35:04;23.00;69.70
70074;DHT22;57445;51.058;3.698;2022-09-23T13:37:44;21.90;72.10
70074;DHT22;57445;51.058;3.698;2022-09-23T13:40:18;21.70;73.50
70074;DHT22;57445;51.058;3.698;2022-09-23T13:42:51;22.00;72.80
70074;DHT22;57445;51.058;3.698;2022-09-23T13:45:23;21.70;73.30
70074;DHT22;57445;51.058;3.698;2022-09-23T13:47:53;21.30;74.60
70074;DHT22;57445;51.058;3.698;2022-09-23T13:50:27;20.70;76.90
70074;DHT22;57445;51.058;3.698;2022-09-23T13:52:58;20.70;77.50
70074;DHT22;57445;51.058;3.698;2022-09-23T13:55:30;21.40;76.40
70074;DHT22;57445;51.058;3.698;2022-09-23T13:58:00;21.70;75.30
70074;DHT22;57445;51.058;3.698;2022-09-23T14:00:37;22.00;74.10
70074;DHT22;57445;51.058;3.698;2022-09-23T14:03:25;21.90;73.50
70074;DHT22;57445;51.058;3.698;2022-09-23T14:05:54;21.10;75.90
70074;DHT22;57445;51.058;3.698;2022-09-23T14:08:31;21.00;77.60
70074;DHT22;57445;51.058;3.698;2022-09-23T14:10:59;21.00;76.60
70074;DHT22;57445;51.058;3.698;2022-09-23T14:13:36;20.80;77.60
70074;DHT22;57445;51.058;3.698;2022-09-23T14:16:14;20.50;78.50
70074;DHT22;57445;51.058;3.698;2022-09-23T14:18:58;20.40;79.20
70074;DHT22;57445;51.058;3.698;2022-09-23T14:21:38;21.00;77.50
70074;DHT22;57445;51.058;3.698;2022-09-23T14:24:16;21.00;76.80
70074;DHT22;57445;51.058;3.698;2022-09-23T14:26:53;21.00;77.00
70074;DHT22;57445;51.058;3.698;2022-09-23T14:29:25;20.90;77.40
70074;DHT22;57445;51.058;3.698;2022-09-23T14:31:55;20.70;77.80
70074;DHT22;57445;51.058;3.698;2022-09-23T14:34:39;21.00;77.40
70074;DHT22;57445;51.058;3.698;2022-09-23T14:37:28;20.70;78.40
70074;DHT22;57445;51.058;3.698;2022-09-23T14:40:21;20.50;79.50
70074;DHT22;57445;51.058;3.698;2022-09-23T14:42:56;20.60;78.10
70074;DHT22;57445;51.058;3.698;2022-09-23T14:45:26;20.90;78.20
70074;DHT22;57445;51.058;3.698;2022-09-23T14:47:59;20.80;78.80
70074;DHT22;57445;51.058;3.698;2022-09-23T14:50:30;20.50;79.60
70074;DHT22;57445;51.058;3.698;2022-09-23T14:53:38;20.30;80.60
70074;DHT22;57445;51.058;3.698;2022-09-23T14:56:10;20.20;81.70
70074;DHT22;57445;51.058;3.698;2022-09-23T14:58:43;20.30;82.40
70074;DHT22;57445;51.058;3.698;2022-09-23T15:01:31;20.20;83.20
70074;DHT22;57445;51.058;3.698;2022-09-23T15:04:12;20.30;83.40
70074;DHT22;57445;51.058;3.698;2022-09-23T15:06:44;20.30;84.40
70074;DHT22;57445;51.058;3.698;2022-09-23T15:09:19;20.60;84.40
70074;DHT22;57445;51.058;3.698;2022-09-23T15:11:51;20.70;83.50
70074;DHT22;57445;51.058;3.698;2022-09-23T15:14:19;20.50;83.50
70074;DHT22;57445;51.058;3.698;2022-09-23T15:16:52;20.80;84.70
70074;DHT22;57445;51.058;3.698;2022-09-23T15:19:22;20.80;83.80
70074;DHT22;57445;51.058;3.698;2022-09-23T15:21:52;20.70;83.30
70074;DHT22;57445;51.058;3.698;2022-09-23T15:24:37;20.70;83.70
70074;DHT22;57445;51.058;3.698;2022-09-23T15:27:27;20.30;84.60
70074;DHT22;57445;51.058;3.698;2022-09-23T15:30:16;20.30;84.90
70074;DHT22;57445;51.058;3.698;2022-09-23T15:32:54;20.30;85.30
70074;DHT22;57445;51.058;3.698;2022-09-23T15:35:24;20.30;86.10
70074;DHT22;57445;51.058;3.698;2022-09-23T15:37:55;20.00;86.50
70074;DHT22;57445;51.058;3.698;2022-09-23T15:40:32;19.90;87.30
70074;DHT22;57445;51.058;3.698;2022-09-23T15:43:12;19.50;86.90
70074;DHT22;57445;51.058;3.698;2022-09-23T15:45:51;19.90;87.40
70074;DHT22;57445;51.058;3.698;2022-09-23T15:48:24;20.00;87.70
70074;DHT22;57445;51.058;3.698;2022-09-23T15:50:54;20.30;86.70
70074;DHT22;57445;51.058;3.698;2022-09-23T15:53:26;20.40;86.30
70074;DHT22;57445;51.058;3.698;2022-09-23T15:55:55;20.20;86.20
70074;DHT22;57445;51.058;3.698;2022-09-23T15:58:24;19.90;87.70
70074;DHT22;57445;51.058;3.698;2022-09-23T16:00:54;19.80;89.00
70074;DHT22;57445;51.058;3.698;2022-09-23T16:03:23;19.90;89.00
70074;DHT22;57445;51.058;3.698;2022-09-23T16:05:56;19.70;89.10
70074;DHT22;57445;51.058;3.698;2022-09-23T16:08:26;19.80;89.80
70074;DHT22;57445;51.058;3.698;2022-09-23T16:10:58;19.70;89.80
70074;DHT22;57445;51.058;3.698;2022-09-23T16:13:26;19.80;89.90
70074;DHT22;57445;51.058;3.698;2022-09-23T16:15:59;19.60;90.30
70074;DHT22;57445;51.058;3.698;2022-09-23T16:18:27;19.70;90.30
70074;DHT22;57445;51.058;3.698;2022-09-23T16:20:56;19.80;90.30
70074;DHT22;57445;51.058;3.698;2022-09-23T16:23:26;19.90;90.10